createdAt,value
2019-02-15T00:01:45.855Z,4.60
2019-02-15T00:04:15.737Z,4.50
2019-02-15T00:06:47.949Z,4.50
2019-02-15T00:09:17.836Z,4.40
2019-02-15T00:11:47.647Z,4.40
2019-02-15T00:14:17.661Z,4.30
2019-02-15T00:16:47.716Z,4.20
2019-02-15T00:19:36.659Z,4.20
2019-02-15T00:22:06.525Z,4.10
2019-02-15T00:24:36.380Z,4.10
2019-02-15T00:27:06.459Z,4.00
2019-02-15T00:29:36.310Z,3.90
2019-02-15T00:32:06.500Z,3.90
2019-02-15T00:34:36.430Z,4.00
2019-02-15T00:37:06.352Z,4.00
2019-02-15T00:39:36.310Z,3.80
2019-02-15T00:42:06.470Z,3.80
2019-02-15T00:44:36.350Z,3.60
2019-02-15T00:47:21.569Z,3.50
2019-02-15T00:49:58.304Z,3.40
2019-02-15T00:52:47.386Z,3.30
2019-02-15T00:55:39.307Z,3.20
2019-02-15T00:58:16.395Z,3.20
2019-02-15T01:00:57.910Z,3.30
2019-02-15T01:03:52.702Z,3.30
2019-02-15T01:06:44.431Z,3.10
2019-02-15T01:09:22.679Z,3.00
2019-02-15T01:11:58.983Z,2.90
2019-02-15T01:14:29.208Z,2.80
2019-02-15T01:16:59.029Z,2.70
2019-02-15T01:19:29.125Z,2.70
2019-02-15T01:21:59.070Z,2.60
2019-02-15T01:24:28.949Z,2.50
2019-02-15T01:27:02.087Z,2.50
2019-02-15T01:29:58.705Z,2.40
2019-02-15T01:32:50.693Z,2.30
2019-02-15T01:35:27.684Z,2.30
2019-02-15T01:38:10.016Z,2.20
2019-02-15T01:41:04.982Z,2.20
2019-02-15T01:43:40.567Z,2.10
2019-02-15T01:46:17.429Z,2.10
2019-02-15T01:48:47.954Z,2.00
2019-02-15T01:51:18.029Z,1.90
2019-02-15T01:53:48.465Z,1.90
2019-02-15T01:56:18.437Z,1.80
2019-02-15T01:58:48.355Z,1.80
2019-02-15T02:01:22.311Z,1.80
2019-02-15T02:03:52.530Z,1.70
2019-02-15T02:06:22.698Z,1.60
2019-02-15T02:08:53.077Z,1.70
2019-02-15T02:11:22.938Z,1.60
2019-02-15T02:13:53.425Z,1.60
2019-02-15T02:16:23.582Z,1.60
2019-02-15T02:18:53.896Z,1.60
2019-02-15T02:21:23.712Z,1.50
2019-02-15T02:23:53.719Z,1.50
2019-02-15T02:26:23.544Z,1.40
2019-02-15T02:28:53.652Z,1.40
2019-02-15T02:31:24.000Z,1.40
2019-02-15T02:33:54.016Z,1.30
2019-02-15T02:36:47.679Z,1.40
2019-02-15T02:39:17.836Z,1.30
2019-02-15T02:41:48.018Z,1.30
2019-02-15T02:44:18.189Z,1.30
2019-02-15T02:46:48.194Z,1.30
2019-02-15T02:49:18.824Z,1.20
2019-02-15T02:51:48.600Z,1.20
2019-02-15T02:54:18.488Z,1.20
2019-02-15T02:56:48.549Z,1.20
2019-02-15T02:59:18.591Z,1.20
2019-02-15T03:01:49.021Z,1.20
2019-02-15T03:04:19.075Z,1.20
2019-02-15T03:06:49.050Z,1.10
2019-02-15T03:09:18.888Z,1.10
2019-02-15T03:11:49.056Z,1.10
2019-02-15T03:14:19.313Z,1.10
2019-02-15T03:16:49.256Z,1.10
2019-02-15T03:19:19.281Z,1.00
2019-02-15T03:21:50.363Z,1.00
2019-02-15T07:49:39.024Z,0.70
2019-02-15T07:55:08.681Z,0.90
2019-02-15T07:57:51.668Z,1.00
2019-02-15T08:00:22.202Z,1.10
2019-02-15T08:02:52.308Z,1.10
2019-02-15T08:05:23.498Z,1.20
2019-02-15T08:07:53.880Z,1.30
2019-02-15T08:10:23.990Z,1.30
2019-02-15T08:12:54.276Z,1.30
2019-02-15T08:15:24.579Z,1.40
2019-02-15T08:17:55.918Z,1.50
2019-02-15T08:20:26.356Z,1.50
2019-02-15T08:22:59.914Z,1.50
2019-02-15T08:25:30.022Z,1.60
2019-02-15T08:28:00.306Z,1.70
2019-02-15T08:30:30.407Z,1.80
2019-02-15T08:33:00.633Z,1.90
2019-02-15T08:35:30.694Z,2.00
2019-02-15T08:37:59.849Z,2.00
2019-02-15T08:40:29.365Z,2.10
2019-02-15T08:42:58.585Z,2.10
2019-02-15T08:45:28.814Z,2.30
2019-02-15T08:47:58.313Z,2.40
2019-02-15T08:50:28.015Z,2.40
2019-02-15T08:52:57.690Z,2.50
2019-02-15T08:55:27.035Z,2.60
2019-02-15T08:57:56.228Z,2.70
2019-02-15T09:00:25.499Z,2.70
2019-02-15T09:02:55.067Z,2.80
2019-02-15T09:05:24.557Z,2.80
2019-02-15T09:07:54.405Z,2.90
2019-02-15T09:10:23.965Z,2.90
2019-02-15T09:12:53.558Z,3.00
2019-02-15T09:15:23.466Z,3.10
2019-02-15T09:17:52.786Z,3.10
2019-02-15T09:20:22.197Z,3.20
2019-02-15T09:22:51.807Z,3.20
2019-02-15T09:25:24.894Z,3.30
2019-02-15T09:28:14.390Z,3.40
2019-02-15T09:30:51.679Z,3.50
2019-02-15T09:33:20.999Z,3.60
2019-02-15T09:35:52.166Z,3.70
2019-02-15T09:38:22.518Z,3.80
2019-02-15T09:40:52.764Z,3.80
2019-02-15T09:43:23.052Z,3.90
2019-02-15T09:45:53.803Z,3.90
2019-02-15T09:48:24.073Z,4.00
2019-02-15T09:50:53.933Z,4.10
2019-02-15T09:53:24.379Z,4.10
2019-02-15T09:55:54.568Z,4.20
2019-02-15T09:58:24.826Z,4.30
2019-02-15T10:00:55.066Z,4.40
2019-02-15T10:03:25.258Z,4.50
2019-02-15T10:05:55.548Z,4.70
2019-02-15T10:08:25.722Z,4.80
2019-02-15T10:10:55.973Z,4.90
2019-02-15T10:13:26.562Z,5.00
2019-02-15T10:15:56.571Z,5.10
2019-02-15T10:18:27.048Z,5.20
2019-02-15T10:20:57.271Z,5.30
2019-02-15T10:23:27.686Z,5.40
2019-02-15T10:25:57.832Z,5.50
2019-02-15T10:28:29.505Z,5.60
2019-02-15T10:30:59.576Z,5.70
2019-02-15T10:33:29.686Z,5.80
2019-02-15T10:35:59.842Z,5.90
2019-02-15T10:38:31.970Z,6.00
2019-02-15T10:41:02.134Z,6.10
2019-02-15T10:43:34.135Z,6.20
2019-02-15T10:46:04.281Z,6.30
2019-02-15T10:48:34.705Z,6.40
2019-02-15T10:51:04.674Z,6.60
2019-02-15T10:53:37.884Z,6.70
2019-02-15T10:56:08.205Z,6.90
2019-02-15T10:58:38.448Z,7.00
2019-02-15T11:01:08.497Z,7.10
2019-02-15T11:03:38.579Z,7.20
2019-02-15T11:06:08.672Z,7.30
2019-02-15T11:08:40.504Z,7.40
2019-02-15T11:11:10.616Z,7.50
2019-02-15T11:13:40.676Z,7.60
2019-02-15T11:16:10.724Z,7.70
2019-02-15T11:18:40.998Z,7.70
2019-02-15T11:21:10.969Z,7.80
2019-02-15T11:23:41.119Z,7.90
2019-02-15T11:26:11.058Z,8.00
2019-02-15T11:28:41.364Z,8.20
2019-02-15T11:31:11.569Z,8.30
2019-02-15T11:33:42.122Z,8.40
2019-02-15T11:36:12.668Z,8.50
2019-02-15T11:38:42.671Z,8.60
2019-02-15T11:41:12.682Z,8.70
2019-02-15T11:43:42.966Z,8.70
2019-02-15T11:46:15.357Z,8.80
2019-02-15T11:48:45.261Z,8.90
2019-02-15T11:51:15.191Z,9.00
2019-02-15T11:53:48.605Z,9.10
2019-02-15T11:56:18.778Z,9.10
2019-02-15T11:58:49.145Z,9.20
2019-02-15T12:01:19.288Z,9.20
2019-02-15T12:03:49.499Z,9.30
2019-02-15T12:06:19.596Z,9.40
2019-02-15T12:08:49.934Z,9.40
2019-02-15T12:11:20.398Z,9.50
2019-02-15T12:13:50.645Z,9.60
2019-02-15T12:16:20.872Z,9.60
2019-02-15T12:18:51.379Z,9.70
2019-02-15T12:21:21.888Z,9.90
2019-02-15T12:23:52.085Z,9.90
2019-02-15T12:26:23.004Z,9.90
2019-02-15T12:28:53.265Z,10.00
2019-02-15T12:31:25.073Z,10.10
2019-02-15T12:33:55.105Z,10.20
2019-02-15T12:36:25.262Z,10.20
2019-02-15T12:38:55.191Z,10.30
2019-02-15T12:41:26.580Z,10.40
2019-02-15T12:43:56.439Z,10.50
2019-02-15T12:46:34.534Z,10.50
2019-02-15T12:49:04.881Z,10.60
2019-02-15T12:51:34.842Z,10.60
2019-02-15T12:54:13.240Z,10.70
2019-02-15T12:56:44.982Z,10.80
2019-02-15T12:59:15.150Z,10.80
2019-02-15T13:01:45.471Z,10.80
2019-02-15T13:04:15.747Z,10.90
2019-02-15T13:06:46.954Z,11.00
2019-02-15T13:09:17.139Z,11.00
2019-02-15T13:11:47.696Z,11.10
2019-02-15T13:14:17.845Z,11.10
2019-02-15T13:16:48.048Z,11.10
2019-02-15T13:19:18.567Z,11.20
2019-02-15T13:21:48.672Z,11.30
2019-02-15T13:24:18.833Z,11.30
2019-02-15T13:26:49.101Z,11.40
2019-02-15T13:29:20.851Z,11.40
2019-02-15T13:31:51.137Z,11.50
2019-02-15T13:34:21.667Z,11.50
2019-02-15T13:36:51.807Z,11.50
2019-02-15T13:39:21.966Z,11.60
2019-02-15T13:41:52.083Z,11.60
2019-02-15T13:44:23.574Z,11.60
2019-02-15T13:46:54.448Z,11.60
2019-02-15T13:49:24.591Z,11.60
2019-02-15T13:51:59.648Z,11.70
2019-02-15T13:54:33.131Z,11.80
2019-02-15T13:57:03.349Z,11.80
2019-02-15T13:59:33.731Z,11.80
2019-02-15T14:02:04.027Z,11.90
2019-02-15T14:04:34.151Z,11.90
2019-02-15T14:07:16.103Z,11.90
2019-02-15T14:09:46.409Z,11.90
2019-02-15T14:12:16.647Z,12.00
2019-02-15T14:14:46.673Z,12.00
2019-02-15T14:17:16.828Z,12.00
2019-02-15T14:19:48.975Z,12.00
2019-02-15T14:22:19.042Z,12.00
2019-02-15T14:24:49.462Z,12.10
2019-02-15T14:27:19.494Z,12.10
2019-02-15T14:29:50.038Z,12.10
2019-02-15T14:32:20.240Z,12.10
2019-02-15T14:34:50.839Z,12.10
2019-02-15T14:37:21.274Z,12.10
2019-02-15T14:39:51.464Z,12.10
2019-02-15T14:42:21.482Z,12.10
2019-02-15T14:44:51.487Z,12.10
2019-02-15T14:47:24.792Z,12.10
2019-02-15T14:49:55.120Z,12.00
2019-02-15T14:52:25.208Z,12.10
2019-02-15T14:54:55.228Z,12.10
2019-02-15T14:57:25.496Z,12.20
2019-02-15T14:59:56.096Z,12.20
2019-02-15T15:02:26.440Z,12.20
2019-02-15T15:04:56.523Z,12.20
2019-02-15T15:07:26.643Z,12.20
2019-02-15T15:09:58.228Z,12.20
2019-02-15T15:12:28.650Z,12.20
2019-02-15T15:14:58.894Z,12.20
2019-02-15T15:17:30.472Z,12.10
2019-02-15T15:20:00.946Z,12.10
2019-02-15T15:22:31.089Z,12.00
2019-02-15T15:25:01.275Z,12.00
2019-02-15T15:27:48.407Z,12.00
2019-02-15T15:30:18.751Z,12.00
2019-02-15T15:32:54.269Z,11.90
2019-02-15T15:35:31.442Z,11.80
2019-02-15T15:38:02.637Z,11.70
2019-02-15T15:40:34.074Z,11.60
2019-02-15T15:43:06.792Z,11.60
2019-02-15T15:45:38.281Z,11.50
2019-02-15T15:48:08.717Z,11.40
2019-02-15T15:50:40.175Z,11.30
2019-02-15T15:53:11.118Z,11.30
2019-02-15T15:55:41.911Z,11.20
2019-02-15T15:58:12.819Z,11.20
2019-02-15T16:00:45.699Z,11.10
2019-02-15T16:03:16.387Z,11.10
2019-02-15T16:05:48.489Z,11.10
2019-02-15T16:08:18.911Z,11.00
2019-02-15T16:10:50.415Z,10.90
2019-02-15T16:13:21.073Z,10.80
2019-02-15T16:15:56.552Z,10.80
2019-02-15T16:18:34.814Z,10.90
2019-02-15T16:21:05.415Z,10.80
2019-02-15T16:23:36.117Z,10.80
2019-02-15T16:26:11.199Z,10.80
2019-02-15T16:28:46.396Z,10.70
2019-02-15T16:31:17.377Z,10.60
2019-02-15T16:33:50.397Z,10.50
2019-02-15T16:36:24.032Z,10.50
2019-02-15T16:38:57.534Z,10.50
2019-02-15T16:41:28.656Z,10.40
2019-02-15T16:44:01.602Z,10.40
2019-02-15T16:46:35.903Z,10.30
2019-02-15T16:49:22.729Z,10.30
2019-02-15T16:52:04.860Z,10.20
2019-02-15T16:54:34.947Z,10.10
2019-02-15T16:57:07.974Z,10.00
2019-02-15T16:59:39.778Z,10.00
2019-02-15T17:02:14.241Z,9.90
2019-02-15T17:04:57.268Z,9.80
2019-02-15T17:07:29.403Z,9.70
2019-02-15T17:10:05.352Z,9.60
2019-02-15T17:13:03.238Z,9.50
2019-02-15T17:15:52.440Z,9.50
2019-02-15T17:18:51.461Z,9.50
2019-02-15T17:21:28.934Z,9.50
2019-02-15T17:24:01.791Z,9.40
2019-02-15T17:26:39.044Z,9.40
2019-02-15T17:29:11.620Z,9.30
2019-02-15T17:31:41.604Z,9.30
2019-02-15T17:34:11.636Z,9.20
2019-02-15T17:36:41.960Z,9.20
2019-02-15T17:39:12.438Z,9.20
2019-02-15T17:41:42.646Z,9.20
2019-02-15T17:44:13.956Z,9.20
2019-02-15T17:46:43.933Z,9.10
2019-02-15T17:49:14.431Z,9.00
2019-02-15T17:51:46.342Z,9.00
2019-02-15T17:54:17.250Z,9.00
2019-02-15T17:56:47.587Z,8.90
2019-02-15T17:59:22.272Z,8.90
2019-02-15T18:01:53.137Z,9.00
2019-02-15T18:04:37.310Z,9.00
2019-02-15T18:07:10.933Z,8.90
2019-02-15T18:09:43.387Z,8.90
2019-02-15T18:12:17.778Z,8.80
2019-02-15T18:14:53.950Z,8.80
2019-02-15T18:24:42.149Z,8.70
2019-02-15T18:31:53.894Z,8.60
2019-02-15T19:03:17.203Z,8.20
2019-02-15T19:05:33.809Z,8.20
2019-02-15T19:08:19.647Z,8.20
2019-02-15T19:12:19.516Z,8.20
2019-02-15T19:17:44.508Z,8.10
2019-02-15T19:20:20.899Z,8.00
2019-02-15T19:23:00.964Z,8.00
2019-02-15T19:25:51.655Z,7.90
2019-02-15T19:28:28.934Z,7.90
2019-02-15T19:31:10.481Z,7.80
2019-02-15T19:34:50.978Z,7.80
2019-02-15T19:39:50.352Z,7.70
2019-02-15T19:42:42.466Z,7.60
2019-02-15T19:45:16.252Z,7.50
2019-02-15T19:47:52.242Z,7.40
2019-02-15T19:50:27.805Z,7.40
2019-02-15T19:53:01.298Z,7.30
2019-02-15T19:57:24.745Z,7.20
2019-02-15T19:58:13.075Z,7.20
2019-02-15T20:00:45.385Z,7.20
2019-02-15T20:06:36.093Z,7.10
2019-02-15T20:09:11.878Z,7.00
2019-02-15T20:11:51.495Z,6.90
2019-02-15T20:14:45.456Z,6.90
2019-02-15T20:17:14.734Z,6.80
2019-02-15T20:19:55.163Z,6.70
2019-02-15T20:22:50.932Z,6.60
2019-02-15T20:25:56.669Z,6.60
2019-02-15T20:28:26.972Z,6.50
2019-02-15T20:32:58.799Z,6.50
2019-02-15T20:34:02.479Z,6.50
2019-02-15T20:37:09.602Z,6.50
2019-02-15T20:39:57.602Z,6.50
2019-02-15T20:45:59.148Z,6.40
2019-02-15T20:48:38.422Z,6.30
2019-02-15T20:54:27.194Z,6.20
2019-02-15T20:57:12.167Z,6.10
2019-02-15T21:02:40.563Z,6.10
2019-02-15T21:05:26.790Z,6.10
2019-02-15T21:11:15.294Z,6.20
2019-02-15T21:13:59.094Z,6.10
2019-02-15T21:16:43.012Z,6.10
2019-02-15T21:19:07.244Z,6.00
2019-02-15T21:21:43.070Z,6.00
2019-02-15T21:24:34.585Z,6.00
2019-02-15T21:27:08.049Z,5.90
2019-02-15T21:29:47.625Z,5.90
2019-02-15T21:32:17.794Z,5.80
2019-02-15T21:34:50.232Z,5.80
2019-02-15T21:37:20.095Z,5.80
2019-02-15T21:39:53.211Z,5.90
2019-02-15T21:42:25.793Z,6.00
2019-02-15T21:44:56.577Z,5.90
2019-02-15T21:47:39.969Z,5.90
2019-02-15T21:50:17.197Z,5.90
2019-02-15T21:52:45.812Z,5.90
2019-02-15T21:55:18.398Z,5.80
2019-02-15T21:57:50.234Z,5.80
2019-02-15T22:00:22.727Z,5.80
2019-02-15T22:02:54.534Z,5.80
2019-02-15T22:05:24.847Z,5.70
2019-02-15T22:08:00.129Z,5.70
2019-02-15T22:10:30.483Z,5.70
2019-02-15T22:13:23.951Z,5.70
2019-02-15T22:15:54.338Z,5.70
2019-02-15T22:18:24.749Z,5.60
2019-02-15T22:20:56.322Z,5.60
2019-02-15T22:23:34.670Z,5.60
2019-02-15T22:26:06.997Z,5.60
2019-02-15T22:28:37.189Z,5.50
2019-02-15T22:31:07.835Z,5.50
2019-02-15T22:33:37.892Z,5.50
2019-02-15T22:36:07.999Z,5.40
2019-02-15T22:38:38.113Z,5.40
2019-02-15T22:41:13.935Z,5.30
2019-02-15T22:43:44.700Z,5.30
2019-02-15T22:46:14.948Z,5.30
2019-02-15T22:48:45.038Z,5.30
2019-02-15T22:51:15.028Z,5.30
2019-02-15T22:53:44.984Z,5.30
2019-02-15T22:56:14.804Z,5.20
2019-02-15T22:58:44.622Z,5.20
2019-02-15T23:01:17.452Z,5.20
2019-02-15T23:03:47.789Z,5.30
2019-02-15T23:06:17.767Z,5.30
2019-02-15T23:08:47.708Z,5.30
2019-02-15T23:11:17.886Z,5.30
2019-02-15T23:13:48.111Z,5.40
2019-02-15T23:16:18.241Z,5.40
2019-02-15T23:18:48.834Z,5.40
2019-02-15T23:21:18.891Z,5.40
2019-02-15T23:23:49.532Z,5.30
2019-02-15T23:26:19.647Z,5.30
2019-02-15T23:28:49.696Z,5.30
2019-02-15T23:31:19.868Z,5.30
2019-02-15T23:33:49.984Z,5.20
2019-02-15T23:36:20.222Z,5.20
2019-02-15T23:38:50.103Z,5.20
2019-02-15T23:41:19.867Z,5.30
2019-02-15T23:43:50.045Z,5.20
2019-02-15T23:46:20.227Z,5.20
2019-02-15T23:48:50.255Z,5.20
2019-02-15T23:51:20.623Z,5.20
2019-02-15T23:53:50.484Z,5.20
2019-02-15T23:56:20.580Z,5.10
2019-02-15T23:58:51.044Z,5.10
